createdAt,value
2018-07-30T00:01:48.549Z,52.70
2018-07-30T00:04:16.077Z,52.50
2018-07-30T00:06:43.404Z,52.60
2018-07-30T00:09:11.452Z,52.80
2018-07-30T00:11:39.319Z,52.60
2018-07-30T00:14:06.789Z,52.80
2018-07-30T00:16:34.036Z,52.50
2018-07-30T00:19:02.797Z,52.50
2018-07-30T00:21:30.267Z,52.60
2018-07-30T00:23:57.728Z,52.50
2018-07-30T00:26:24.996Z,52.60
2018-07-30T00:28:52.278Z,52.70
2018-07-30T00:31:19.856Z,52.80
2018-07-30T00:33:47.091Z,52.80
2018-07-30T00:36:14.312Z,52.90
2018-07-30T00:38:41.561Z,52.80
2018-07-30T00:41:08.820Z,52.80
2018-07-30T00:43:36.056Z,53.00
2018-07-30T00:46:03.721Z,53.10
2018-07-30T00:48:31.032Z,53.00
2018-07-30T00:50:58.163Z,52.80
2018-07-30T00:53:25.395Z,52.80
2018-07-30T00:55:52.636Z,53.10
2018-07-30T00:58:19.882Z,53.10
2018-07-30T01:00:47.323Z,53.00
2018-07-30T01:03:14.595Z,53.00
2018-07-30T01:05:41.732Z,52.40
2018-07-30T01:08:08.956Z,53.20
2018-07-30T01:10:36.135Z,53.30
2018-07-30T01:13:03.373Z,53.30
2018-07-30T01:15:31.160Z,53.40
2018-07-30T01:17:58.396Z,53.30
2018-07-30T01:22:53.001Z,53.20
2018-07-30T01:25:20.260Z,53.70
2018-07-30T01:27:47.500Z,53.70
2018-07-30T01:30:14.760Z,53.80
2018-07-30T01:32:41.966Z,53.60
2018-07-30T01:35:09.343Z,54.30
2018-07-30T01:37:36.516Z,53.70
2018-07-30T01:40:03.958Z,53.80
2018-07-30T01:42:31.240Z,53.60
2018-07-30T01:44:58.452Z,53.60
2018-07-30T01:47:25.652Z,53.60
2018-07-30T01:49:52.832Z,53.60
2018-07-30T01:52:20.885Z,53.70
2018-07-30T01:54:48.135Z,53.70
2018-07-30T01:57:15.367Z,53.80
2018-07-30T01:59:43.761Z,53.70
2018-07-30T02:02:11.034Z,53.80
2018-07-30T02:04:38.323Z,53.80
2018-07-30T02:07:05.709Z,53.80
2018-07-30T02:09:32.905Z,53.80
2018-07-30T02:12:00.137Z,54.00
2018-07-30T02:14:27.362Z,54.10
2018-07-30T02:16:54.612Z,54.60
2018-07-30T02:19:21.924Z,54.20
2018-07-30T02:21:49.156Z,54.20
2018-07-30T02:24:16.399Z,54.40
2018-07-30T02:26:43.660Z,54.40
2018-07-30T02:29:10.908Z,54.50
2018-07-30T02:31:38.206Z,54.60
2018-07-30T02:34:06.605Z,54.50
2018-07-30T02:36:33.894Z,54.50
2018-07-30T02:39:01.120Z,54.40
2018-07-30T02:41:28.543Z,54.60
2018-07-30T02:43:55.981Z,54.50
2018-07-30T02:46:23.193Z,54.50
2018-07-30T02:48:50.423Z,54.50
2018-07-30T02:51:17.668Z,54.60
2018-07-30T02:53:44.961Z,54.60
2018-07-30T02:56:13.424Z,54.60
2018-07-30T02:58:41.432Z,54.40
2018-07-30T03:01:08.640Z,54.60
2018-07-30T03:03:35.955Z,54.60
2018-07-30T03:06:03.176Z,54.50
2018-07-30T03:08:30.396Z,54.80
2018-07-30T03:10:57.642Z,54.80
2018-07-30T03:13:24.907Z,54.90
2018-07-30T03:15:52.325Z,55.00
2018-07-30T03:18:20.384Z,55.10
2018-07-30T03:20:47.576Z,55.20
2018-07-30T03:23:14.808Z,55.20
2018-07-30T03:25:42.016Z,55.30
2018-07-30T03:28:09.900Z,55.30
2018-07-30T03:30:37.176Z,55.00
2018-07-30T03:33:04.952Z,55.00
2018-07-30T03:35:32.152Z,55.10
2018-07-30T03:37:59.361Z,55.30
2018-07-30T03:40:26.703Z,55.40
2018-07-30T03:42:54.120Z,55.50
2018-07-30T03:45:21.353Z,55.40
2018-07-30T03:47:50.173Z,55.40
2018-07-30T03:50:17.505Z,55.40
2018-07-30T03:52:45.996Z,55.40
2018-07-30T03:55:13.436Z,55.40
2018-07-30T03:57:40.636Z,55.70
2018-07-30T04:00:09.487Z,55.80
2018-07-30T04:02:36.756Z,56.60
2018-07-30T04:05:04.100Z,55.80
2018-07-30T04:07:31.866Z,55.80
2018-07-30T04:09:59.767Z,56.20
2018-07-30T04:12:27.032Z,56.10
2018-07-30T04:14:54.359Z,56.20
2018-07-30T04:17:22.462Z,56.10
2018-07-30T04:19:49.701Z,56.10
2018-07-30T04:22:16.869Z,56.30
2018-07-30T04:24:44.011Z,56.30
2018-07-30T04:27:11.897Z,56.40
2018-07-30T04:29:39.672Z,56.60
2018-07-30T04:32:06.905Z,56.60
2018-07-30T04:34:34.048Z,56.60
2018-07-30T04:37:01.404Z,56.90
2018-07-30T04:39:29.652Z,56.70
2018-07-30T04:41:56.891Z,56.70
2018-07-30T04:44:24.123Z,56.60
2018-07-30T04:46:51.308Z,56.90
2018-07-30T04:49:19.629Z,56.90
2018-07-30T04:51:46.768Z,57.10
2018-07-30T04:54:14.839Z,57.30
2018-07-30T04:56:42.076Z,57.30
2018-07-30T04:59:10.013Z,57.80
2018-07-30T05:01:37.921Z,57.80
2018-07-30T05:04:05.280Z,57.90
2018-07-30T05:06:32.629Z,58.00
2018-07-30T05:08:59.860Z,58.20
2018-07-30T05:11:27.198Z,58.20
2018-07-30T05:13:55.148Z,58.40
2018-07-30T05:16:22.515Z,58.60
2018-07-30T05:18:50.464Z,58.70
2018-07-30T05:21:17.733Z,58.50
2018-07-30T05:23:45.024Z,58.50
2018-07-30T05:26:12.601Z,58.70
2018-07-30T05:28:39.818Z,59.10
2018-07-30T05:31:08.177Z,59.40
2018-07-30T05:33:36.001Z,59.70
2018-07-30T05:36:04.806Z,60.50
2018-07-30T05:38:32.045Z,60.00
2018-07-30T05:40:59.307Z,60.30
2018-07-30T05:43:26.596Z,60.50
2018-07-30T05:45:54.644Z,60.60
2018-07-30T05:48:22.385Z,61.00
2018-07-30T05:50:49.586Z,61.10
2018-07-30T05:53:17.499Z,60.90
2018-07-30T05:55:44.760Z,61.50
2018-07-30T05:58:12.065Z,61.60
2018-07-30T06:03:06.554Z,61.40
2018-07-30T06:05:34.029Z,61.20
2018-07-30T06:08:01.254Z,61.00
2018-07-30T06:10:29.233Z,61.10
2018-07-30T06:12:56.524Z,61.00
2018-07-30T06:15:24.448Z,61.10
2018-07-30T06:17:52.388Z,60.80
2018-07-30T06:20:19.611Z,61.00
2018-07-30T06:22:46.887Z,60.40
2018-07-30T06:25:14.096Z,60.50
2018-07-30T06:27:41.966Z,60.30
2018-07-30T06:30:09.413Z,60.50
2018-07-30T06:35:04.612Z,59.50
2018-07-30T06:37:31.889Z,59.20
2018-07-30T06:39:59.096Z,58.60
2018-07-30T06:42:26.316Z,58.20
2018-07-30T06:44:53.564Z,58.30
2018-07-30T06:47:20.834Z,58.20
2018-07-30T06:49:48.085Z,58.00
2018-07-30T06:52:15.270Z,57.90
2018-07-30T06:54:42.497Z,57.60
2018-07-30T06:57:09.781Z,57.40
2018-07-30T06:59:37.056Z,57.50
2018-07-30T07:02:04.577Z,57.60
2018-07-30T07:04:31.788Z,57.60
2018-07-30T07:06:58.966Z,57.70
2018-07-30T07:09:26.204Z,57.60
2018-07-30T07:11:53.440Z,57.60
2018-07-30T07:14:20.620Z,57.60
2018-07-30T07:16:47.811Z,57.50
2018-07-30T07:19:15.012Z,57.60
2018-07-30T07:21:42.386Z,57.40
2018-07-30T07:24:09.528Z,57.30
2018-07-30T07:26:36.865Z,57.50
2018-07-30T07:29:04.212Z,57.50
2018-07-30T07:31:31.501Z,57.50
2018-07-30T07:33:58.701Z,57.60
2018-07-30T07:36:25.909Z,57.60
2018-07-30T07:38:53.224Z,57.50
2018-07-30T07:41:20.460Z,57.60
2018-07-30T07:46:14.829Z,57.60
2018-07-30T07:48:42.192Z,57.60
2018-07-30T07:51:09.452Z,57.60
2018-07-30T07:53:36.640Z,57.60
2018-07-30T07:56:04.912Z,57.60
2018-07-30T07:58:32.176Z,57.60
2018-07-30T08:00:59.368Z,57.50
2018-07-30T08:03:26.668Z,57.50
2018-07-30T08:05:53.869Z,57.50
2018-07-30T08:08:21.184Z,57.60
2018-07-30T08:10:48.935Z,57.60
2018-07-30T08:13:16.165Z,57.60
2018-07-30T08:15:43.460Z,57.60
2018-07-30T08:18:10.712Z,57.60
2018-07-30T08:20:37.854Z,57.50
2018-07-30T08:23:05.125Z,57.60
2018-07-30T08:25:32.305Z,57.50
2018-07-30T08:27:59.553Z,57.40
2018-07-30T08:30:26.849Z,57.40
2018-07-30T08:32:54.127Z,57.60
2018-07-30T08:35:21.305Z,57.30
2018-07-30T08:37:48.544Z,57.40
2018-07-30T08:40:17.217Z,57.50
2018-07-30T08:42:44.473Z,57.50
2018-07-30T08:45:12.329Z,57.50
2018-07-30T08:47:39.603Z,57.50
2018-07-30T08:50:09.020Z,57.50
2018-07-30T08:52:36.511Z,57.70
2018-07-30T08:55:04.441Z,57.70
2018-07-30T08:57:31.757Z,57.70
2018-07-30T08:59:58.972Z,57.50
2018-07-30T09:02:27.176Z,57.60
2018-07-30T09:04:54.402Z,57.60
2018-07-30T09:07:21.702Z,57.50
2018-07-30T09:09:49.864Z,57.50
2018-07-30T09:12:17.079Z,57.40
2018-07-30T09:14:44.305Z,57.40
2018-07-30T09:17:11.651Z,57.40
2018-07-30T09:19:38.815Z,58.00
2018-07-30T09:22:05.989Z,57.40
2018-07-30T09:24:33.244Z,57.30
2018-07-30T09:27:00.516Z,57.30
2018-07-30T09:29:27.829Z,57.20
2018-07-30T09:31:55.064Z,57.00
2018-07-30T09:34:22.311Z,57.00
2018-07-30T09:36:49.512Z,57.00
2018-07-30T09:39:16.777Z,56.80
2018-07-30T09:41:43.993Z,56.70
2018-07-30T09:44:11.201Z,56.70
2018-07-30T09:46:38.432Z,56.70
2018-07-30T09:49:05.732Z,56.70
2018-07-30T09:51:32.980Z,56.80
2018-07-30T09:54:00.129Z,56.60
2018-07-30T09:56:27.492Z,56.70
2018-07-30T09:58:54.702Z,56.90
2018-07-30T10:01:27.672Z,56.30
2018-07-30T10:03:55.272Z,56.40
2018-07-30T10:06:22.517Z,56.30
2018-07-30T10:08:49.680Z,56.30
2018-07-30T10:11:16.872Z,56.30
2018-07-30T10:13:44.099Z,56.90
2018-07-30T10:16:11.325Z,56.30
2018-07-30T10:18:38.552Z,56.20
2018-07-30T10:21:05.975Z,56.00
2018-07-30T10:23:33.223Z,56.00
2018-07-30T10:26:00.580Z,56.00
2018-07-30T10:28:27.901Z,56.00
2018-07-30T10:30:55.271Z,56.70
2018-07-30T10:33:22.976Z,56.00
2018-07-30T10:35:50.204Z,56.00
2018-07-30T10:38:17.475Z,56.00
2018-07-30T10:40:44.592Z,55.90
2018-07-30T10:43:11.886Z,55.60
2018-07-30T10:45:39.163Z,55.70
2018-07-30T10:48:06.356Z,55.70
2018-07-30T10:50:33.561Z,55.60
2018-07-30T10:53:00.812Z,55.60
2018-07-30T10:55:28.068Z,56.40
2018-07-30T10:57:55.328Z,55.70
2018-07-30T11:00:22.572Z,55.70
2018-07-30T11:02:49.786Z,55.70
2018-07-30T11:05:17.013Z,55.70
2018-07-30T11:07:44.292Z,55.50
2018-07-30T11:10:11.455Z,55.60
2018-07-30T11:12:38.706Z,55.60
2018-07-30T11:15:05.984Z,55.60
2018-07-30T11:17:33.147Z,55.50
2018-07-30T11:20:00.440Z,55.50
2018-07-30T11:22:27.690Z,55.20
2018-07-30T11:24:54.923Z,55.40
2018-07-30T11:27:22.084Z,55.40
2018-07-30T11:29:49.343Z,55.10
2018-07-30T11:32:16.571Z,55.10
2018-07-30T11:34:43.835Z,55.00
2018-07-30T11:37:11.026Z,54.80
2018-07-30T11:39:38.359Z,54.70
2018-07-30T11:42:05.738Z,54.80
2018-07-30T11:44:32.985Z,54.60
2018-07-30T11:47:00.185Z,54.60
2018-07-30T11:49:27.423Z,54.70
2018-07-30T11:51:54.632Z,55.30
2018-07-30T11:54:21.914Z,54.60
2018-07-30T11:56:49.074Z,54.60
2018-07-30T12:01:43.553Z,54.60
2018-07-30T12:04:10.812Z,54.60
2018-07-30T12:06:37.980Z,54.60
2018-07-30T12:09:06.004Z,54.40
2018-07-30T12:11:33.216Z,54.50
2018-07-30T12:14:00.487Z,54.40
2018-07-30T12:16:27.708Z,54.40
2018-07-30T12:18:54.960Z,54.40
2018-07-30T12:21:22.152Z,54.20
2018-07-30T12:23:49.458Z,54.10
2018-07-30T12:26:16.736Z,54.00
2018-07-30T12:28:43.911Z,54.00
2018-07-30T12:31:11.122Z,54.20
2018-07-30T12:33:38.332Z,54.40
2018-07-30T12:36:05.593Z,54.10
2018-07-30T12:38:32.755Z,54.00
2018-07-30T12:41:00.037Z,53.90
2018-07-30T12:43:27.287Z,53.80
2018-07-30T12:45:54.540Z,53.70
2018-07-30T12:48:21.820Z,53.70
2018-07-30T12:50:49.097Z,54.10
2018-07-30T12:53:16.376Z,54.30
2018-07-30T12:55:43.616Z,54.40
2018-07-30T12:58:10.833Z,53.80
2018-07-30T13:00:37.996Z,53.20
2018-07-30T13:03:05.245Z,52.40
2018-07-30T13:05:32.420Z,52.00
2018-07-30T13:07:59.620Z,52.00
2018-07-30T13:10:26.869Z,52.20
2018-07-30T13:12:54.380Z,52.30
2018-07-30T13:15:22.709Z,52.60
2018-07-30T13:17:49.996Z,52.40
2018-07-30T13:20:17.237Z,51.70
2018-07-30T13:22:44.440Z,51.70
2018-07-30T13:25:11.646Z,52.00
2018-07-30T13:27:38.918Z,52.30
2018-07-30T13:30:07.552Z,52.50
2018-07-30T13:32:34.846Z,52.60
2018-07-30T13:35:02.007Z,52.90
2018-07-30T13:37:29.257Z,53.20
2018-07-30T13:39:56.448Z,53.40
2018-07-30T13:42:23.684Z,53.20
2018-07-30T13:44:50.932Z,53.10
2018-07-30T13:47:18.129Z,52.60
2018-07-30T13:49:45.355Z,52.10
2018-07-30T13:52:12.639Z,52.40
2018-07-30T13:54:39.943Z,52.60
2018-07-30T13:57:07.388Z,52.90
2018-07-30T13:59:34.572Z,53.10
2018-07-30T14:02:01.845Z,53.20
2018-07-30T14:04:29.242Z,53.30
2018-07-30T14:06:56.457Z,53.40
2018-07-30T14:09:23.704Z,53.50
2018-07-30T14:11:50.944Z,53.60
2018-07-30T14:14:18.204Z,53.70
2018-07-30T14:16:45.413Z,53.70
2018-07-30T14:19:12.677Z,53.60
2018-07-30T14:21:39.901Z,53.50
2018-07-30T14:24:07.317Z,53.70
2018-07-30T14:26:35.204Z,53.60
2018-07-30T14:29:02.488Z,53.60
2018-07-30T14:31:29.679Z,54.30
2018-07-30T14:33:56.988Z,53.60
2018-07-30T14:36:24.212Z,53.60
2018-07-30T14:38:51.462Z,53.70
2018-07-30T14:41:18.719Z,53.60
2018-07-30T14:43:45.944Z,53.60
2018-07-30T14:46:13.207Z,53.30
2018-07-30T14:48:40.468Z,53.60
2018-07-30T14:51:07.661Z,53.60
2018-07-30T14:53:34.870Z,53.50
2018-07-30T14:56:02.145Z,53.20
2018-07-30T14:58:29.371Z,53.20
2018-07-30T15:00:56.584Z,53.30
2018-07-30T15:03:24.877Z,53.40
2018-07-30T15:05:52.153Z,53.40
2018-07-30T15:08:19.325Z,53.50
2018-07-30T15:10:46.623Z,53.60
2018-07-30T15:13:13.844Z,53.70
2018-07-30T15:15:41.070Z,53.80
2018-07-30T15:18:08.220Z,54.50
2018-07-30T15:20:35.513Z,54.00
2018-07-30T15:23:02.716Z,54.10
2018-07-30T15:25:30.053Z,54.10
2018-07-30T15:27:57.412Z,54.10
2018-07-30T15:30:24.675Z,54.20
2018-07-30T15:32:51.925Z,54.20
2018-07-30T15:35:19.180Z,54.30
2018-07-30T15:37:46.412Z,54.30
2018-07-30T15:40:13.628Z,54.30
2018-07-30T15:45:08.077Z,54.00
2018-07-30T15:47:35.312Z,55.00
2018-07-30T15:50:02.561Z,54.50
2018-07-30T15:52:29.821Z,54.50
2018-07-30T15:54:57.116Z,54.50
2018-07-30T15:57:24.241Z,54.60
2018-07-30T15:59:51.420Z,54.50
2018-07-30T16:02:18.667Z,54.60
2018-07-30T16:04:45.847Z,54.50
2018-07-30T16:07:13.028Z,54.60
2018-07-30T16:09:40.204Z,54.60
2018-07-30T16:12:07.481Z,54.60
2018-07-30T16:14:34.656Z,54.70
2018-07-30T16:17:01.875Z,54.80
2018-07-30T16:19:29.061Z,54.70
2018-07-30T16:21:56.372Z,54.70
2018-07-30T16:24:24.100Z,54.40
2018-07-30T16:26:51.319Z,54.40
2018-07-30T16:29:18.560Z,54.50
2018-07-30T16:31:45.870Z,54.60
2018-07-30T16:34:13.072Z,54.70
2018-07-30T16:36:40.305Z,54.70
2018-07-30T16:39:08.792Z,54.80
2018-07-30T16:41:35.969Z,54.70
2018-07-30T16:44:03.260Z,54.80
2018-07-30T16:46:30.547Z,54.60
2018-07-30T16:48:57.802Z,54.60
2018-07-30T16:51:25.081Z,54.40
2018-07-30T16:53:52.325Z,54.50
2018-07-30T16:56:19.558Z,54.40
2018-07-30T16:58:47.407Z,54.60
2018-07-30T17:01:14.532Z,54.60
2018-07-30T17:03:41.695Z,54.70
2018-07-30T17:06:08.948Z,54.70
2018-07-30T17:08:36.217Z,54.80
2018-07-30T17:11:03.444Z,54.80
2018-07-30T17:13:30.656Z,54.80
2018-07-30T17:15:57.875Z,54.80
2018-07-30T17:18:25.092Z,54.90
2018-07-30T17:20:52.320Z,54.90
2018-07-30T17:23:19.571Z,54.80
2018-07-30T17:25:46.801Z,54.80
2018-07-30T17:28:14.072Z,54.70
2018-07-30T17:30:41.282Z,54.70
2018-07-30T17:33:08.571Z,54.60
2018-07-30T17:35:35.816Z,54.70
2018-07-30T17:38:03.168Z,54.60
2018-07-30T17:40:30.340Z,54.50
2018-07-30T17:42:57.508Z,54.30
2018-07-30T17:45:24.760Z,54.40
2018-07-30T17:47:51.969Z,54.40
2018-07-30T17:50:19.211Z,54.30
2018-07-30T17:52:46.453Z,54.20
2018-07-30T17:55:13.620Z,54.20
2018-07-30T17:57:40.811Z,54.00
2018-07-30T18:00:09.053Z,53.80
2018-07-30T18:02:36.252Z,53.70
2018-07-30T18:05:03.660Z,53.60
2018-07-30T18:07:30.901Z,53.50
2018-07-30T18:09:58.120Z,53.60
2018-07-30T18:12:25.336Z,53.70
2018-07-30T18:14:52.532Z,53.80
2018-07-30T18:17:19.748Z,53.90
2018-07-30T18:19:54.380Z,54.00
2018-07-30T18:22:21.646Z,54.00
2018-07-30T18:24:48.868Z,54.10
2018-07-30T18:27:16.847Z,54.20
2018-07-30T18:29:44.015Z,54.20
2018-07-30T18:32:11.267Z,54.30
2018-07-30T18:34:38.464Z,54.40
2018-07-30T18:37:05.733Z,54.50
2018-07-30T18:39:32.975Z,54.60
2018-07-30T18:42:00.148Z,54.60
2018-07-30T18:44:27.300Z,54.60
2018-07-30T18:46:54.520Z,54.60
2018-07-30T18:49:21.765Z,54.70
2018-07-30T18:51:48.928Z,54.60
2018-07-30T18:56:43.498Z,54.60
2018-07-30T18:59:10.685Z,54.60
2018-07-30T19:01:37.944Z,54.40
2018-07-30T19:04:05.185Z,54.30
2018-07-30T19:06:32.456Z,54.20
2018-07-30T19:08:59.742Z,54.20
2018-07-30T19:11:26.941Z,54.20
2018-07-30T19:13:54.085Z,54.10
2018-07-30T19:16:21.309Z,54.10
2018-07-30T19:18:48.777Z,54.10
2018-07-30T19:21:16.015Z,54.20
2018-07-30T19:23:43.872Z,54.20
2018-07-30T19:26:11.079Z,54.20
2018-07-30T19:28:38.623Z,54.20
2018-07-30T19:31:06.054Z,54.30
2018-07-30T19:33:33.319Z,54.20
2018-07-30T19:38:27.777Z,54.30
2018-07-30T19:40:54.975Z,54.30
2018-07-30T19:43:22.177Z,54.30
2018-07-30T19:45:49.393Z,54.30
2018-07-30T19:48:16.620Z,54.20
2018-07-30T19:50:44.527Z,54.10
2018-07-30T19:53:11.961Z,54.60
2018-07-30T19:55:39.426Z,54.00
2018-07-30T19:58:06.784Z,54.00
2018-07-30T20:00:34.584Z,54.00
2018-07-30T20:03:01.817Z,54.00
2018-07-30T20:05:29.035Z,53.90
2018-07-30T20:07:56.293Z,53.90
2018-07-30T20:10:23.526Z,53.80
2018-07-30T20:12:50.761Z,53.70
2018-07-30T20:15:17.988Z,53.70
2018-07-30T20:17:45.244Z,53.90
2018-07-30T20:20:14.529Z,53.90
2018-07-30T20:22:42.252Z,53.80
2018-07-30T20:25:09.720Z,53.60
2018-07-30T20:27:36.982Z,53.60
2018-07-30T20:30:04.816Z,53.60
2018-07-30T20:32:31.992Z,53.70
2018-07-30T20:34:59.188Z,53.70
2018-07-30T20:37:26.496Z,53.60
2018-07-30T20:39:53.691Z,53.60
2018-07-30T20:42:20.940Z,53.60
2018-07-30T20:44:48.128Z,53.50
2018-07-30T20:47:15.433Z,53.60
2018-07-30T20:49:42.610Z,53.60
2018-07-30T20:52:09.830Z,53.70
2018-07-30T20:54:37.033Z,53.80
2018-07-30T20:57:04.311Z,53.80
2018-07-30T20:59:31.603Z,53.70
2018-07-30T21:01:58.861Z,53.90
2018-07-30T21:04:26.142Z,53.90
2018-07-30T21:06:53.302Z,53.80
2018-07-30T21:09:20.517Z,53.50
2018-07-30T21:11:47.779Z,53.50
2018-07-30T21:14:15.026Z,53.40
2018-07-30T21:16:42.232Z,53.20
2018-07-30T21:19:09.436Z,53.40
2018-07-30T21:21:36.636Z,53.70
2018-07-30T21:24:03.892Z,53.60
2018-07-30T21:26:31.125Z,53.30
2018-07-30T21:28:58.344Z,53.40
2018-07-30T21:31:25.539Z,53.40
2018-07-30T21:33:52.798Z,53.30
2018-07-30T21:36:19.936Z,54.00
2018-07-30T21:38:47.200Z,53.50
2018-07-30T21:41:14.465Z,53.60
2018-07-30T21:43:41.652Z,53.60
2018-07-30T21:46:08.884Z,53.70
2018-07-30T21:48:36.104Z,53.70
2018-07-30T21:51:03.303Z,53.70
2018-07-30T21:53:30.516Z,53.60
2018-07-30T21:55:57.741Z,53.70
2018-07-30T22:00:55.600Z,53.60
2018-07-30T22:03:22.876Z,53.40
2018-07-30T22:05:56.698Z,54.10
2018-07-30T22:08:23.912Z,53.40
2018-07-30T22:10:51.148Z,53.40
2018-07-30T22:13:18.384Z,53.50
2018-07-30T22:15:45.652Z,53.60
2018-07-30T22:18:13.392Z,53.70
2018-07-30T22:20:40.620Z,53.60
2018-07-30T22:23:07.893Z,53.50
2018-07-30T22:25:35.075Z,53.50
2018-07-30T22:28:02.244Z,53.50
2018-07-30T22:30:29.476Z,53.40
2018-07-30T22:32:56.713Z,53.40
2018-07-30T22:35:23.905Z,53.40
2018-07-30T22:37:51.266Z,53.40
2018-07-30T22:40:18.521Z,53.40
2018-07-30T22:42:45.869Z,53.60
2018-07-30T22:45:13.054Z,53.50
2018-07-30T22:47:40.399Z,53.40
2018-07-30T22:50:07.570Z,53.60
2018-07-30T22:52:34.887Z,53.70
2018-07-30T22:55:02.133Z,53.70
2018-07-30T22:57:29.436Z,53.60
2018-07-30T22:59:56.650Z,53.60
2018-07-30T23:02:23.837Z,53.70
2018-07-30T23:04:51.149Z,53.60
2018-07-30T23:07:18.389Z,53.60
2018-07-30T23:09:45.602Z,53.60
2018-07-30T23:12:12.867Z,53.60
2018-07-30T23:14:40.100Z,53.70
2018-07-30T23:17:07.573Z,53.80
2018-07-30T23:19:34.835Z,53.70
2018-07-30T23:22:02.060Z,53.80
2018-07-30T23:24:29.312Z,53.90
2018-07-30T23:26:56.489Z,53.70
2018-07-30T23:29:24.449Z,53.60
2018-07-30T23:31:51.648Z,53.60
2018-07-30T23:34:18.804Z,53.70
2018-07-30T23:36:46.067Z,53.50
2018-07-30T23:39:13.261Z,54.00
2018-07-30T23:41:40.494Z,53.60
2018-07-30T23:44:07.950Z,53.70
2018-07-30T23:46:35.171Z,53.70
2018-07-30T23:49:02.439Z,53.70
2018-07-30T23:51:29.819Z,53.60
2018-07-30T23:53:57.120Z,53.60
2018-07-30T23:56:24.276Z,53.70
2018-07-30T23:58:51.643Z,53.80
